Wetterdaten: Woche 23.01.17 - 29.01.17 (KW4)
Datum Zeit Temp. A. Feuchte A. Luftdruck Regen Wind Richtung Sonnenschein ET UV Solar Taupunkt Windchill Windben Empfang
23.01.2017 00:00 -9,9 C 93 % 1025,4 hPa 0,0 l/m 4,0 km/h (1 Bft) S-SW 0,00 h 0,000 mm 0,0 UV-I 0 W/m -10,7 C -9,9 C 6,0 km/h (2 Bft) 98,54 %
23.01.2017 01:00 -10,6 C 93 % 1025,3 hPa 0,0 l/m 3,4 km/h (1 Bft) S-SW 0,00 h 0,000 mm 0,0 UV-I 0 W/m -11,6 C -10,6 C 5,2 km/h (1 Bft) 98,18 %
23.01.2017 02:00 -11,2 C 92 % 1025,5 hPa 0,0 l/m 3,5 km/h (1 Bft) S-SW 0,00 h 0,000 mm 0,0 UV-I 0 W/m -12,3 C -11,2 C 5,1 km/h (1 Bft) 98,77 %
23.01.2017 03:00 -11,2 C 92 % 1025,6 hPa 0,0 l/m 3,3 km/h (1 Bft) S-SW 0,00 h 0,000 mm 0,0 UV-I 0 W/m -12,2 C -11,2 C 5,3 km/h (1 Bft) 97,16 %
23.01.2017 04:00 -11,7 C 92 % 1025,8 hPa 0,0 l/m 2,0 km/h (1 Bft) S-SW 0,00 h 0,000 mm 0,0 UV-I 0 W/m -12,7 C -11,7 C 3,7 km/h (1 Bft) 98,77 %
23.01.2017 05:00 -12,0 C 92 % 1025,6 hPa 0,0 l/m 1,0 km/h (0 Bft) S-SW 0,00 h 0,000 mm 0,0 UV-I 0 W/m -13,0 C -12,0 C 2,2 km/h (1 Bft) 98,96 %
23.01.2017 06:00 -12,3 C 91 % 1025,8 hPa 0,0 l/m 1,2 km/h (1 Bft) S-SW 0,00 h 0,000 mm 0,0 UV-I 0 W/m -13,4 C -12,3 C 2,4 km/h (1 Bft) 96,38 %
23.01.2017 07:00 -12,4 C 91 % 1025,8 hPa 0,0 l/m 1,5 km/h (1 Bft) S-SW 0,10 h 0,000 mm 0,0 UV-I 8 W/m -13,5 C -12,4 C 2,6 km/h (1 Bft) 97,06 %
23.01.2017 08:00 -12,3 C 91 % 1026,0 hPa 0,0 l/m 2,1 km/h (1 Bft) S-SW 0,23 h 0,000 mm 0,0 UV-I 52 W/m -13,4 C -12,3 C 3,2 km/h (1 Bft) 98,57 %
23.01.2017 09:00 -10,3 C 93 % 1026,1 hPa 0,0 l/m 1,9 km/h (1 Bft) S-SW 1,00 h 0,000 mm 0,0 UV-I 146 W/m -11,3 C -10,3 C 3,3 km/h (1 Bft) 98,08 %
23.01.2017 10:00 -8,6 C 93 % 1026,3 hPa 0,0 l/m 0,6 km/h (0 Bft) S-SW 1,00 h 0,025 mm 0,5 UV-I 273 W/m -9,5 C -8,6 C 1,4 km/h (1 Bft) 98,41 %
23.01.2017 11:00 -7,1 C 92 % 1026,1 hPa 0,0 l/m 0,7 km/h (0 Bft) S-SW 1,00 h 0,051 mm 0,8 UV-I 327 W/m -8,2 C -7,1 C 2,2 km/h (1 Bft) 98,86 %
23.01.2017 12:00 -5,9 C 87 % 1025,6 hPa 0,0 l/m 2,6 km/h (1 Bft) S-SW 1,00 h 0,076 mm 0,8 UV-I 351 W/m -7,7 C -5,9 C 4,8 km/h (1 Bft) 98,78 %
23.01.2017 13:00 -5,1 C 83 % 1025,0 hPa 0,2 l/m 4,3 km/h (1 Bft) NO 1,00 h 0,102 mm 0,7 UV-I 328 W/m -7,5 C -5,1 C 5,9 km/h (2 Bft) 98,87 %
23.01.2017 14:00 -4,7 C 82 % 1024,8 hPa 0,0 l/m 4,0 km/h (1 Bft) NO 1,00 h 0,102 mm 0,5 UV-I 244 W/m -7,4 C -4,7 C 5,2 km/h (1 Bft) 99,20 %
23.01.2017 15:00 -4,6 C 81 % 1024,6 hPa 0,0 l/m 2,6 km/h (1 Bft) NO 1,00 h 0,076 mm 0,0 UV-I 130 W/m -7,3 C -4,6 C 3,8 km/h (1 Bft) 98,68 %
23.01.2017 16:00 -5,0 C 83 % 1024,7 hPa 0,0 l/m 1,3 km/h (1 Bft) NO 0,63 h 0,051 mm 0,0 UV-I 29 W/m -7,3 C -5,0 C 2,6 km/h (1 Bft) 99,51 %
23.01.2017 17:00 -6,3 C 88 % 1025,0 hPa 0,0 l/m 1,9 km/h (1 Bft) NO 0,00 h 0,000 mm 0,0 UV-I 4 W/m -8,1 C -6,3 C 3,4 km/h (1 Bft) 99,44 %
23.01.2017 18:00 -6,9 C 91 % 1025,1 hPa 0,0 l/m 4,7 km/h (1 Bft) NO 0,00 h 0,000 mm 0,0 UV-I 0 W/m -8,1 C -7,0 C 7,0 km/h (2 Bft) 97,60 %
23.01.2017 19:00 -8,2 C 92 % 1025,3 hPa 0,0 l/m 2,1 km/h (1 Bft) O 0,00 h 0,000 mm 0,0 UV-I 0 W/m -9,3 C -8,2 C 3,9 km/h (1 Bft) 99,14 %
23.01.2017 20:00 -9,7 C 93 % 1025,6 hPa 0,0 l/m 0,3 km/h (0 Bft) O 0,00 h 0,000 mm 0,0 UV-I 0 W/m -10,6 C -9,7 C 0,7 km/h (0 Bft) 98,80 %
23.01.2017 21:00 -8,6 C 94 % 1025,6 hPa 0,0 l/m 4,2 km/h (1 Bft) O-NO 0,00 h 0,000 mm 0,0 UV-I 0 W/m -9,4 C -9,0 C 6,5 km/h (2 Bft) 97,72 %
23.01.2017 22:00 -7,7 C 94 % 1025,7 hPa 0,0 l/m 5,0 km/h (1 Bft) O-NO 0,00 h 0,000 mm 0,0 UV-I 0 W/m -8,5 C -7,9 C 8,1 km/h (2 Bft) 98,99 %
23.01.2017 23:00 -7,7 C 94 % 1025,8 hPa 0,0 l/m 4,2 km/h (1 Bft) O-NO 0,00 h 0,000 mm 0,0 UV-I 0 W/m -8,5 C -7,8 C 7,0 km/h (2 Bft) 97,81 %
24.01.2017 00:00 -7,6 C 94 % 1025,8 hPa 0,0 l/m 3,4 km/h (1 Bft) O 0,00 h 0,000 mm 0,0 UV-I 0 W/m -8,4 C -7,6 C 5,9 km/h (2 Bft) 99,08 %
24.01.2017 01:00 -7,4 C 94 % 1025,5 hPa 0,0 l/m 0,9 km/h (0 Bft) S-SO 0,00 h 0,000 mm 0,0 UV-I 0 W/m -8,2 C -7,4 C 2,4 km/h (1 Bft) 97,96 %
24.01.2017 02:00 -7,4 C 94 % 1025,6 hPa 0,0 l/m 1,7 km/h (1 Bft) S-SW 0,00 h 0,000 mm 0,0 UV-I 0 W/m -8,2 C -7,4 C 3,3 km/h (1 Bft) 99,35 %
24.01.2017 03:00 -7,8 C 94 % 1025,7 hPa 0,0 l/m 3,1 km/h (1 Bft) SW 0,00 h 0,000 mm 0,0 UV-I 0 W/m -8,6 C -7,8 C 5,0 km/h (1 Bft) 97,21 %
24.01.2017 04:00 -7,8 C 94 % 1025,8 hPa 0,0 l/m 4,0 km/h (1 Bft) SW 0,00 h 0,000 mm 0,0 UV-I 0 W/m -8,6 C -7,8 C 6,1 km/h (2 Bft) 99,23 %
24.01.2017 05:00 -7,8 C 94 % 1025,9 hPa 0,0 l/m 2,3 km/h (1 Bft) W-SW 0,00 h 0,000 mm 0,0 UV-I 0 W/m -8,6 C -7,8 C 4,2 km/h (1 Bft) 98,21 %
24.01.2017 06:00 -7,9 C 94 % 1026,3 hPa 0,0 l/m 2,8 km/h (1 Bft) W-SW 0,00 h 0,000 mm 0,0 UV-I 0 W/m -8,7 C -7,9 C 4,8 km/h (1 Bft) 98,80 %
24.01.2017 07:00 -8,0 C 94 % 1026,7 hPa 0,0 l/m 2,8 km/h (1 Bft) SW 0,00 h 0,000 mm 0,0 UV-I 6 W/m -8,8 C -8,0 C 4,6 km/h (1 Bft) 98,03 %
24.01.2017 08:00 -8,1 C 94 % 1027,3 hPa 0,0 l/m 3,3 km/h (1 Bft) S-SW 0,00 h 0,000 mm 0,0 UV-I 19 W/m -8,9 C -8,1 C 5,3 km/h (1 Bft) 99,23 %
24.01.2017 09:00 -7,9 C 94 % 1027,6 hPa 0,0 l/m 3,2 km/h (1 Bft) SW 0,00 h 0,000 mm 0,0 UV-I 42 W/m -8,7 C -7,9 C 5,2 km/h (1 Bft) 98,22 %
24.01.2017 10:00 -7,6 C 94 % 1028,1 hPa 0,0 l/m 2,4 km/h (1 Bft) W-SW 0,00 h 0,000 mm 0,0 UV-I 59 W/m -8,4 C -7,6 C 4,2 km/h (1 Bft) 98,74 %
24.01.2017 11:00 -7,4 C 94 % 1028,2 hPa 0,0 l/m 1,5 km/h (1 Bft) W 0,00 h 0,025 mm 0,0 UV-I 68 W/m -8,2 C -7,4 C 3,4 km/h (1 Bft) 98,09 %
24.01.2017 12:00 -7,6 C 94 % 1028,2 hPa 0,0 l/m 1,1 km/h (0 Bft) NW 0,00 h 0,026 mm 0,0 UV-I 96 W/m -8,3 C -7,6 C 3,3 km/h (1 Bft) 98,45 %
24.01.2017 13:00 -7,5 C 94 % 1028,1 hPa 0,0 l/m 1,2 km/h (1 Bft) W 0,00 h 0,025 mm 0,0 UV-I 104 W/m -8,2 C -7,5 C 3,0 km/h (1 Bft) 98,10 %
24.01.2017 14:00 -7,3 C 94 % 1028,1 hPa 0,0 l/m 3,1 km/h (1 Bft) W 0,00 h 0,026 mm 0,0 UV-I 90 W/m -8,1 C -7,3 C 5,2 km/h (1 Bft) 97,85 %
24.01.2017 15:00 -7,3 C 94 % 1028,4 hPa 0,0 l/m 4,4 km/h (1 Bft) W-SW 0,00 h 0,025 mm 0,0 UV-I 61 W/m -8,1 C -7,3 C 6,9 km/h (2 Bft) 97,95 %
24.01.2017 16:00 -7,5 C 94 % 1028,9 hPa 0,0 l/m 2,8 km/h (1 Bft) W-SW 0,03 h 0,025 mm 0,0 UV-I 18 W/m -8,3 C -7,5 C 4,8 km/h (1 Bft) 98,85 %
24.01.2017 17:00 -7,7 C 94 % 1029,5 hPa 0,0 l/m 3,1 km/h (1 Bft) W-SW 0,00 h 0,000 mm 0,0 UV-I 0 W/m -8,5 C -7,7 C 5,0 km/h (1 Bft) 97,96 %
24.01.2017 18:00 -7,7 C 94 % 1029,8 hPa 0,0 l/m 4,4 km/h (1 Bft) SW 0,00 h 0,000 mm 0,0 UV-I 0 W/m -8,5 C -7,7 C 6,6 km/h (2 Bft) 98,21 %
24.01.2017 19:00 -7,6 C 93 % 1030,1 hPa 0,0 l/m 2,8 km/h (1 Bft) W-SW 0,00 h 0,000 mm 0,0 UV-I 0 W/m -8,6 C -7,6 C 4,6 km/h (1 Bft) 98,62 %
24.01.2017 20:00 -7,6 C 93 % 1030,4 hPa 0,0 l/m 2,0 km/h (1 Bft) W-SW 0,00 h 0,000 mm 0,0 UV-I 0 W/m -8,6 C -7,6 C 3,5 km/h (1 Bft) 98,68 %
24.01.2017 21:00 -7,6 C 93 % 1030,7 hPa 0,0 l/m 0,6 km/h (0 Bft) W-SW 0,00 h 0,000 mm 0,0 UV-I 0 W/m -8,5 C -7,6 C 2,0 km/h (1 Bft) 98,85 %
24.01.2017 22:00 -7,8 C 93 % 1030,9 hPa 0,0 l/m 0,2 km/h (0 Bft) N 0,00 h 0,000 mm 0,0 UV-I 0 W/m -8,7 C -7,8 C 1,2 km/h (1 Bft) 98,35 %
24.01.2017 23:00 -7,7 C 93 % 1031,2 hPa 0,0 l/m 0,1 km/h (0 Bft) N 0,00 h 0,000 mm 0,0 UV-I 0 W/m -8,6 C -7,7 C 0,6 km/h (0 Bft) 98,40 %
25.01.2017 00:00 -7,7 C 93 % 1031,1 hPa 0,0 l/m 0,4 km/h (0 Bft) W-SW 0,00 h 0,000 mm 0,0 UV-I 0 W/m -8,6 C -7,7 C 1,2 km/h (1 Bft) 97,60 %
25.01.2017 01:00 -7,6 C 93 % 1031,1 hPa 0,0 l/m 0,5 km/h (0 Bft) W-SW 0,00 h 0,000 mm 0,0 UV-I 0 W/m -8,5 C -7,6 C 1,6 km/h (1 Bft) 98,74 %
25.01.2017 02:00 -7,5 C 93 % 1031,0 hPa 0,0 l/m 1,7 km/h (1 Bft) S-SW 0,00 h 0,000 mm 0,0 UV-I 0 W/m -8,5 C -7,5 C 3,1 km/h (1 Bft) 98,09 %
25.01.2017 03:00 -7,4 C 93 % 1030,9 hPa 0,0 l/m 2,0 km/h (1 Bft) S 0,00 h 0,000 mm 0,0 UV-I 0 W/m -8,3 C -7,4 C 4,0 km/h (1 Bft) 99,08 %
25.01.2017 04:00 -7,3 C 93 % 1030,7 hPa 0,0 l/m 0,9 km/h (0 Bft) SO 0,00 h 0,000 mm 0,0 UV-I 0 W/m -8,2 C -7,3 C 2,5 km/h (1 Bft) 97,67 %
25.01.2017 05:00 -7,3 C 93 % 1030,8 hPa 0,0 l/m 1,0 km/h (0 Bft) SO 0,00 h 0,000 mm 0,0 UV-I 0 W/m -8,2 C -7,3 C 2,6 km/h (1 Bft) 99,10 %
25.01.2017 06:00 -7,2 C 94 % 1030,7 hPa 0,0 l/m 1,7 km/h (1 Bft) NO 0,00 h 0,000 mm 0,0 UV-I 0 W/m -8,0 C -7,2 C 3,5 km/h (1 Bft) 95,01 %
25.01.2017 07:00 -7,0 C 94 % 1030,7 hPa 0,0 l/m 2,5 km/h (1 Bft) NO 0,00 h 0,000 mm 0,0 UV-I 7 W/m -7,8 C -7,0 C 4,0 km/h (1 Bft) 95,67 %
25.01.2017 08:00 -6,7 C 93 % 1030,8 hPa 0,0 l/m 5,7 km/h (1 Bft) NO 0,00 h 0,000 mm 0,0 UV-I 27 W/m -7,6 C -7,0 C 8,2 km/h (2 Bft) 93,65 %
25.01.2017 09:00 -6,2 C 92 % 1031,0 hPa 0,0 l/m 7,5 km/h (2 Bft) O-NO 0,00 h 0,000 mm 0,0 UV-I 63 W/m -7,2 C -7,6 C 11,4 km/h (2 Bft) 97,54 %
25.01.2017 10:00 -5,5 C 91 % 1031,2 hPa 0,0 l/m 9,5 km/h (2 Bft) O-NO 0,00 h 0,025 mm 0,0 UV-I 102 W/m -6,7 C -8,9 C 13,8 km/h (3 Bft) 97,90 %
25.01.2017 11:00 -4,9 C 89 % 1030,9 hPa 0,0 l/m 9,0 km/h (2 Bft) O-NO 0,00 h 0,026 mm 0,5 UV-I 141 W/m -6,4 C -7,8 C 13,7 km/h (3 Bft) 99,57 %
25.01.2017 12:00 -4,1 C 87 % 1030,2 hPa 0,0 l/m 12,7 km/h (3 Bft) O-NO 0,00 h 0,051 mm 0,5 UV-I 168 W/m -6,0 C -10,2 C 17,9 km/h (3 Bft) 98,08 %
25.01.2017 13:00 -3,7 C 87 % 1029,8 hPa 0,0 l/m 13,4 km/h (3 Bft) NO 0,00 h 0,050 mm 0,5 UV-I 148 W/m -5,5 C -10,2 C 18,5 km/h (3 Bft) 99,48 %
25.01.2017 14:00 -3,3 C 87 % 1029,7 hPa 0,0 l/m 15,2 km/h (3 Bft) O-NO 0,00 h 0,051 mm 0,0 UV-I 111 W/m -5,1 C -11,0 C 20,5 km/h (4 Bft) 97,66 %
25.01.2017 15:00 -2,8 C 86 % 1029,9 hPa 0,0 l/m 12,6 km/h (3 Bft) O-NO 0,00 h 0,051 mm 0,0 UV-I 61 W/m -4,8 C -8,6 C 18,3 km/h (3 Bft) 99,64 %
25.01.2017 16:00 -2,7 C 85 % 1029,9 hPa 0,0 l/m 12,4 km/h (3 Bft) NO 0,13 h 0,025 mm 0,0 UV-I 21 W/m -4,9 C -8,4 C 17,5 km/h (3 Bft) 98,33 %
25.01.2017 17:00 -2,9 C 86 % 1030,0 hPa 0,0 l/m 8,5 km/h (2 Bft) O-NO 0,00 h 0,026 mm 0,0 UV-I 5 W/m -4,9 C -5,2 C 13,1 km/h (3 Bft) 99,18 %
25.01.2017 18:00 -2,8 C 87 % 1030,0 hPa 0,0 l/m 12,8 km/h (3 Bft) O-NO 0,00 h 0,000 mm 0,0 UV-I 0 W/m -4,6 C -8,6 C 18,1 km/h (3 Bft) 98,09 %
25.01.2017 19:00 -2,4 C 86 % 1030,2 hPa 0,0 l/m 17,4 km/h (3 Bft) O-NO 0,00 h 0,000 mm 0,0 UV-I 0 W/m -4,4 C -11,2 C 24,3 km/h (4 Bft) 99,68 %
25.01.2017 20:00 -2,2 C 85 % 1030,2 hPa 0,0 l/m 19,5 km/h (3 Bft) O-NO 0,00 h 0,025 mm 0,0 UV-I 0 W/m -4,4 C -12,2 C 27,4 km/h (4 Bft) 98,12 %
25.01.2017 21:00 -2,3 C 85 % 1030,2 hPa 0,0 l/m 17,8 km/h (3 Bft) O-NO 0,00 h 0,026 mm 0,0 UV-I 0 W/m -4,4 C -11,4 C 24,9 km/h (4 Bft) 99,01 %
25.01.2017 22:00 -2,3 C 84 % 1030,0 hPa 0,0 l/m 17,8 km/h (3 Bft) O-NO 0,00 h 0,025 mm 0,0 UV-I 0 W/m -4,6 C -11,4 C 25,0 km/h (4 Bft) 98,49 %
25.01.2017 23:00 -2,4 C 85 % 1030,0 hPa 0,0 l/m 18,1 km/h (3 Bft) O-NO 0,00 h 0,025 mm 0,0 UV-I 0 W/m -4,5 C -11,7 C 24,7 km/h (4 Bft) 99,17 %
26.01.2017 00:00 -2,3 C 86 % 1029,9 hPa 0,0 l/m 19,3 km/h (3 Bft) O-NO 0,00 h 0,000 mm 0,0 UV-I 0 W/m -4,3 C -12,3 C 26,1 km/h (4 Bft) 98,83 %
26.01.2017 01:00 -2,2 C 84 % 1029,8 hPa 0,0 l/m 22,9 km/h (4 Bft) O-NO 0,00 h 0,025 mm 0,0 UV-I 0 W/m -4,5 C -13,8 C 30,5 km/h (5 Bft) 98,79 %
26.01.2017 02:00 -2,3 C 82 % 1029,7 hPa 0,0 l/m 24,3 km/h (4 Bft) O-NO 0,00 h 0,026 mm 0,0 UV-I 0 W/m -4,9 C -14,4 C 33,6 km/h (5 Bft) 98,17 %
26.01.2017 03:00 -2,6 C 83 % 1029,4 hPa 0,0 l/m 21,0 km/h (4 Bft) O-NO 0,00 h 0,025 mm 0,0 UV-I 0 W/m -5,1 C -13,4 C 28,6 km/h (4 Bft) 98,79 %
26.01.2017 04:00 -3,1 C 83 % 1029,1 hPa 0,0 l/m 18,7 km/h (3 Bft) O-NO 0,00 h 0,026 mm 0,0 UV-I 0 W/m -5,5 C -12,8 C 25,5 km/h (4 Bft) 99,21 %
26.01.2017 05:00 -3,1 C 82 % 1028,8 hPa 0,0 l/m 26,2 km/h (4 Bft) O-NO 0,00 h 0,025 mm 0,0 UV-I 0 W/m -5,7 C -16,3 C 36,3 km/h (5 Bft) 98,40 %
26.01.2017 06:00 -3,2 C 82 % 1028,7 hPa 0,0 l/m 19,8 km/h (4 Bft) O-NO 0,00 h 0,025 mm 0,0 UV-I 0 W/m -5,9 C -13,6 C 27,6 km/h (4 Bft) 96,97 %
26.01.2017 07:00 -4,2 C 85 % 1028,7 hPa 0,0 l/m 14,9 km/h (3 Bft) O-NO 0,13 h 0,026 mm 0,0 UV-I 10 W/m -6,4 C -11,9 C 20,6 km/h (4 Bft) 92,06 %
26.01.2017 08:00 -4,6 C 87 % 1028,5 hPa 0,0 l/m 15,9 km/h (3 Bft) O-NO 0,97 h 0,025 mm 0,0 UV-I 83 W/m -6,4 C -13,1 C 22,1 km/h (4 Bft) 96,22 %
26.01.2017 09:00 -4,2 C 87 % 1028,5 hPa 0,0 l/m 18,1 km/h (3 Bft) O-NO 1,00 h 0,026 mm 0,0 UV-I 209 W/m -6,1 C -14,0 C 24,4 km/h (4 Bft) 98,68 %
26.01.2017 10:00 -3,2 C 84 % 1028,5 hPa 0,0 l/m 19,3 km/h (3 Bft) NO 1,00 h 0,076 mm 0,6 UV-I 323 W/m -5,6 C -13,4 C 26,7 km/h (4 Bft) 98,54 %
26.01.2017 11:00 -1,9 C 79 % 1027,8 hPa 0,0 l/m 22,9 km/h (4 Bft) O-NO 1,00 h 0,101 mm 0,8 UV-I 396 W/m -5,0 C -13,3 C 31,1 km/h (5 Bft) 98,92 %
26.01.2017 12:00 -0,9 C 76 % 1027,0 hPa 0,0 l/m 24,0 km/h (4 Bft) O-NO 1,00 h 0,153 mm 0,9 UV-I 407 W/m -4,6 C -12,5 C 33,3 km/h (5 Bft) 99,12 %
26.01.2017 13:00 -0,1 C 72 % 1026,5 hPa 0,0 l/m 24,8 km/h (4 Bft) NO 1,00 h 0,178 mm 0,8 UV-I 371 W/m -4,4 C -11,7 C 33,8 km/h (5 Bft) 98,36 %
26.01.2017 14:00 0,6 C 68 % 1026,0 hPa 0,0 l/m 28,2 km/h (4 Bft) O-NO 1,00 h 0,177 mm 0,5 UV-I 278 W/m -4,5 C -12,0 C 38,9 km/h (6 Bft) 98,16 %
26.01.2017 15:00 0,8 C 67 % 1025,8 hPa 0,0 l/m 28,0 km/h (4 Bft) O-NO 1,00 h 0,153 mm 0,0 UV-I 166 W/m -4,7 C -11,7 C 37,8 km/h (5 Bft) 99,56 %
26.01.2017 16:00 0,5 C 68 % 1025,6 hPa 0,0 l/m 25,8 km/h (4 Bft) O-NO 0,73 h 0,127 mm 0,0 UV-I 47 W/m -4,8 C -11,3 C 34,3 km/h (5 Bft) 98,68 %
26.01.2017 17:00 -0,4 C 71 % 1025,5 hPa 0,0 l/m 29,7 km/h (5 Bft) O-NO 0,00 h 0,076 mm 0,0 UV-I 6 W/m -5,0 C -13,8 C 39,8 km/h (6 Bft) 98,28 %
26.01.2017 18:00 -0,9 C 73 % 1025,3 hPa 0,0 l/m 29,4 km/h (5 Bft) O-NO 0,00 h 0,051 mm 0,0 UV-I 0 W/m -5,2 C -14,4 C 40,0 km/h (6 Bft) 99,08 %
26.01.2017 19:00 -1,6 C 75 % 1025,0 hPa 0,0 l/m 23,4 km/h (4 Bft) O-NO 0,00 h 0,051 mm 0,0 UV-I 0 W/m -5,4 C -13,2 C 32,3 km/h (5 Bft) 98,17 %
26.01.2017 20:00 -2,1 C 76 % 1024,8 hPa 0,0 l/m 24,4 km/h (4 Bft) O-NO 0,00 h 0,050 mm 0,0 UV-I 0 W/m -5,7 C -14,3 C 34,2 km/h (5 Bft) 99,10 %
26.01.2017 21:00 -2,8 C 78 % 1025,0 hPa 0,0 l/m 16,8 km/h (3 Bft) O-NO 0,00 h 0,026 mm 0,0 UV-I 0 W/m -6,1 C -11,4 C 23,8 km/h (4 Bft) 97,77 %
26.01.2017 22:00 -3,2 C 78 % 1025,1 hPa 0,0 l/m 18,4 km/h (3 Bft) NO 0,00 h 0,025 mm 0,0 UV-I 0 W/m -6,4 C -12,8 C 25,2 km/h (4 Bft) 99,17 %
26.01.2017 23:00 -3,5 C 79 % 1025,3 hPa 0,0 l/m 16,3 km/h (3 Bft) O-NO 0,00 h 0,026 mm 0,0 UV-I 0 W/m -6,6 C -12,0 C 22,4 km/h (4 Bft) 97,63 %
27.01.2017 00:00 -3,9 C 80 % 1025,1 hPa 0,0 l/m 16,8 km/h (3 Bft) O-NO 0,00 h 0,000 mm 0,0 UV-I 0 W/m -6,8 C -12,9 C 24,0 km/h (4 Bft) 98,89 %
27.01.2017 01:00 -4,3 C 82 % 1024,9 hPa 0,0 l/m 16,0 km/h (3 Bft) O-NO 0,00 h 0,025 mm 0,0 UV-I 0 W/m -6,9 C -12,8 C 22,3 km/h (4 Bft) 97,20 %
27.01.2017 02:00 -4,8 C 83 % 1024,9 hPa 0,0 l/m 10,7 km/h (2 Bft) O-NO 0,00 h 0,026 mm 0,0 UV-I 0 W/m -7,2 C -9,2 C 15,9 km/h (3 Bft) 99,00 %
27.01.2017 03:00 -5,5 C 85 % 1025,0 hPa 0,0 l/m 7,9 km/h (2 Bft) O-NO 0,00 h 0,000 mm 0,0 UV-I 0 W/m -7,7 C -7,5 C 12,4 km/h (3 Bft) 97,46 %
27.01.2017 04:00 -7,6 C 87 % 1025,1 hPa 0,0 l/m 4,3 km/h (1 Bft) O 0,00 h 0,000 mm 0,0 UV-I 0 W/m -9,3 C -7,8 C 7,4 km/h (2 Bft) 99,00 %
27.01.2017 05:00 -6,9 C 89 % 1025,0 hPa 0,0 l/m 8,6 km/h (2 Bft) O-NO 0,00 h 0,000 mm 0,0 UV-I 0 W/m -8,5 C -9,8 C 13,5 km/h (3 Bft) 99,06 %
27.01.2017 06:00 -7,6 C 90 % 1025,0 hPa 0,0 l/m 4,4 km/h (1 Bft) O-NO 0,00 h 0,000 mm 0,0 UV-I 0 W/m -9,1 C -7,6 C 6,6 km/h (2 Bft) 97,37 %
27.01.2017 07:00 -9,9 C 91 % 1025,2 hPa 0,0 l/m 0,8 km/h (0 Bft) O-NO 0,17 h 0,000 mm 0,0 UV-I 10 W/m -11,1 C -9,9 C 1,5 km/h (1 Bft) 98,25 %
27.01.2017 08:00 -10,5 C 92 % 1025,8 hPa 0,0 l/m 4,0 km/h (1 Bft) S 0,93 h 0,000 mm 0,0 UV-I 103 W/m -11,5 C -10,5 C 5,3 km/h (1 Bft) 97,47 %
27.01.2017 09:00 -8,9 C 91 % 1026,2 hPa 0,0 l/m 2,1 km/h (1 Bft) S-SW 1,00 h 0,025 mm 0,3 UV-I 237 W/m -10,2 C -8,9 C 3,5 km/h (1 Bft) 97,55 %
27.01.2017 10:00 -6,5 C 86 % 1026,5 hPa 0,0 l/m 2,7 km/h (1 Bft) S-SW 1,00 h 0,051 mm 0,6 UV-I 336 W/m -8,4 C -6,5 C 4,5 km/h (1 Bft) 98,77 %
27.01.2017 11:00 -4,5 C 83 % 1026,1 hPa 0,0 l/m 7,6 km/h (2 Bft) O-NO 1,00 h 0,076 mm 0,9 UV-I 404 W/m -7,0 C -6,0 C 11,0 km/h (2 Bft) 98,64 %
27.01.2017 12:00 -3,4 C 80 % 1025,5 hPa 0,0 l/m 9,3 km/h (2 Bft) NO 1,00 h 0,127 mm 0,9 UV-I 415 W/m -6,3 C -6,3 C 13,7 km/h (3 Bft) 99,13 %
27.01.2017 13:00 -2,3 C 78 % 1024,9 hPa 0,0 l/m 12,4 km/h (3 Bft) O-NO 1,00 h 0,127 mm 0,8 UV-I 370 W/m -5,5 C -7,7 C 17,4 km/h (3 Bft) 99,20 %
27.01.2017 14:00 -2,1 C 78 % 1024,5 hPa 0,0 l/m 16,0 km/h (3 Bft) O-NO 1,00 h 0,127 mm 0,5 UV-I 278 W/m -5,4 C -10,1 C 21,4 km/h (4 Bft) 98,40 %
27.01.2017 15:00 -2,2 C 79 % 1024,2 hPa 0,0 l/m 14,7 km/h (3 Bft) NO 1,00 h 0,102 mm 0,0 UV-I 157 W/m -5,4 C -9,4 C 19,8 km/h (4 Bft) 99,11 %
27.01.2017 16:00 -2,8 C 80 % 1024,0 hPa 0,0 l/m 11,9 km/h (2 Bft) O-NO 0,77 h 0,076 mm 0,0 UV-I 41 W/m -5,7 C -8,1 C 17,1 km/h (3 Bft) 97,33 %
27.01.2017 17:00 -3,6 C 82 % 1023,8 hPa 0,0 l/m 10,8 km/h (2 Bft) NO 0,00 h 0,025 mm 0,0 UV-I 4 W/m -6,2 C -8,2 C 15,7 km/h (3 Bft) 98,98 %
27.01.2017 18:00 -4,4 C 85 % 1023,8 hPa 0,0 l/m 10,9 km/h (2 Bft) O-NO 0,00 h 0,026 mm 0,0 UV-I 0 W/m -6,6 C -8,9 C 15,7 km/h (3 Bft) 97,28 %
27.01.2017 19:00 -4,7 C 87 % 1023,8 hPa 0,0 l/m 14,8 km/h (3 Bft) O-NO 0,00 h 0,000 mm 0,0 UV-I 0 W/m -6,6 C -12,5 C 20,8 km/h (4 Bft) 97,50 %
27.01.2017 20:00 -5,1 C 89 % 1023,7 hPa 0,0 l/m 18,5 km/h (3 Bft) O-NO 0,00 h 0,000 mm 0,0 UV-I 0 W/m -6,6 C -15,3 C 25,5 km/h (4 Bft) 96,07 %
27.01.2017 21:00 -4,7 C 91 % 1023,5 hPa 0,0 l/m 22,2 km/h (4 Bft) O-NO 0,00 h 0,000 mm 0,0 UV-I 0 W/m -6,0 C -16,8 C 31,0 km/h (5 Bft) 97,10 %
27.01.2017 22:00 -4,7 C 92 % 1023,3 hPa 0,0 l/m 22,0 km/h (4 Bft) O-NO 0,00 h 0,000 mm 0,0 UV-I 0 W/m -5,8 C -16,7 C 30,1 km/h (5 Bft) 95,56 %
27.01.2017 23:00 -4,9 C 92 % 1023,3 hPa 0,0 l/m 20,0 km/h (4 Bft) O-NO 0,00 h 0,000 mm 0,0 UV-I 0 W/m -6,0 C -15,9 C 27,5 km/h (4 Bft) 97,09 %
28.01.2017 00:00 -5,2 C 92 % 1023,1 hPa 0,0 l/m 20,3 km/h (4 Bft) O-NO 0,00 h 0,000 mm 0,0 UV-I 0 W/m -6,3 C -16,4 C 28,7 km/h (4 Bft) 95,53 %
28.01.2017 01:00 -5,4 C 92 % 1023,0 hPa 0,0 l/m 18,4 km/h (3 Bft) O-NO 0,00 h 0,000 mm 0,0 UV-I 0 W/m -6,5 C -15,5 C 25,2 km/h (4 Bft) 96,46 %
28.01.2017 02:00 -5,4 C 92 % 1023,2 hPa 0,0 l/m 16,9 km/h (3 Bft) O-NO 0,00 h 0,000 mm 0,0 UV-I 0 W/m -6,5 C -14,8 C 22,9 km/h (4 Bft) 96,53 %
28.01.2017 03:00 -5,6 C 92 % 1023,1 hPa 0,0 l/m 16,9 km/h (3 Bft) O-NO 0,00 h 0,000 mm 0,0 UV-I 0 W/m -6,7 C -14,9 C 22,7 km/h (4 Bft) 96,63 %
28.01.2017 04:00 -5,6 C 92 % 1023,2 hPa 0,0 l/m 15,3 km/h (3 Bft) O-NO 0,00 h 0,000 mm 0,0 UV-I 0 W/m -6,7 C -13,9 C 21,3 km/h (4 Bft) 96,74 %
28.01.2017 05:00 -5,8 C 92 % 1023,4 hPa 0,0 l/m 15,2 km/h (3 Bft) O-NO 0,00 h 0,000 mm 0,0 UV-I 0 W/m -6,9 C -14,0 C 21,2 km/h (4 Bft) 96,08 %
28.01.2017 06:00 -5,8 C 92 % 1023,7 hPa 0,0 l/m 13,5 km/h (3 Bft) O-NO 0,00 h 0,000 mm 0,0 UV-I 0 W/m -6,9 C -12,8 C 18,7 km/h (3 Bft) 96,75 %
28.01.2017 07:00 -5,8 C 92 % 1023,9 hPa 0,0 l/m 10,3 km/h (2 Bft) O-NO 0,00 h 0,000 mm 0,0 UV-I 7 W/m -6,9 C -10,1 C 15,3 km/h (3 Bft) 95,46 %
28.01.2017 08:00 -5,9 C 92 % 1024,2 hPa 0,0 l/m 6,4 km/h (2 Bft) O 0,00 h 0,000 mm 0,0 UV-I 32 W/m -7,0 C -6,6 C 10,5 km/h (2 Bft) 96,56 %
28.01.2017 09:00 -5,8 C 92 % 1024,4 hPa 0,0 l/m 7,9 km/h (2 Bft) O 0,00 h 0,000 mm 0,0 UV-I 79 W/m -7,0 C -7,9 C 12,6 km/h (3 Bft) 95,61 %
28.01.2017 10:00 -5,7 C 91 % 1024,6 hPa 0,0 l/m 8,9 km/h (2 Bft) O-NO 0,00 h 0,025 mm 0,4 UV-I 134 W/m -6,9 C -8,5 C 14,0 km/h (3 Bft) 96,79 %
28.01.2017 11:00 -5,4 C 90 % 1024,4 hPa 0,0 l/m 10,2 km/h (2 Bft) O-NO 0,00 h 0,051 mm 0,5 UV-I 169 W/m -6,7 C -9,4 C 15,3 km/h (3 Bft) 96,23 %
28.01.2017 12:00 -5,1 C 90 % 1024,1 hPa 0,0 l/m 9,7 km/h (2 Bft) O-NO 0,00 h 0,051 mm 0,7 UV-I 200 W/m -6,6 C -8,6 C 15,5 km/h (3 Bft) 97,00 %
28.01.2017 13:00 -4,9 C 89 % 1023,7 hPa 0,0 l/m 8,3 km/h (2 Bft) O-NO 0,07 h 0,051 mm 0,6 UV-I 191 W/m -6,4 C -7,2 C 12,7 km/h (3 Bft) 95,73 %
28.01.2017 14:00 -4,8 C 89 % 1023,7 hPa 0,0 l/m 7,4 km/h (2 Bft) NO 0,77 h 0,051 mm 0,5 UV-I 174 W/m -6,3 C -6,2 C 11,6 km/h (2 Bft) 95,97 %
28.01.2017 15:00 -4,9 C 89 % 1023,7 hPa 0,0 l/m 7,1 km/h (2 Bft) NO 1,00 h 0,050 mm 0,0 UV-I 136 W/m -6,4 C -5,9 C 10,5 km/h (2 Bft) 95,84 %
28.01.2017 16:00 -5,6 C 89 % 1023,8 hPa 0,0 l/m 4,9 km/h (1 Bft) NO 0,77 h 0,051 mm 0,0 UV-I 34 W/m -7,1 C -5,9 C 7,0 km/h (2 Bft) 96,62 %
28.01.2017 17:00 -6,3 C 91 % 1024,0 hPa 0,0 l/m 4,0 km/h (1 Bft) O-NO 0,00 h 0,000 mm 0,0 UV-I 5 W/m -7,5 C -6,3 C 5,9 km/h (2 Bft) 94,72 %
28.01.2017 18:00 -7,1 C 92 % 1024,2 hPa 0,0 l/m 4,8 km/h (1 Bft) O-NO 0,00 h 0,000 mm 0,0 UV-I 0 W/m -8,1 C -7,2 C 7,1 km/h (2 Bft) 96,63 %
28.01.2017 19:00 -7,6 C 93 % 1024,5 hPa 0,0 l/m 4,5 km/h (1 Bft) O-NO 0,00 h 0,000 mm 0,0 UV-I 0 W/m -8,6 C -7,6 C 6,3 km/h (2 Bft) 95,31 %
28.01.2017 20:00 -8,3 C 94 % 1024,9 hPa 0,0 l/m 3,8 km/h (1 Bft) O-NO 0,00 h 0,000 mm 0,0 UV-I 0 W/m -9,2 C -8,4 C 5,9 km/h (2 Bft) 97,17 %
28.01.2017 21:00 -7,8 C 94 % 1025,2 hPa 0,0 l/m 8,6 km/h (2 Bft) O-NO 0,00 h 0,000 mm 0,0 UV-I 0 W/m -8,6 C -10,5 C 13,4 km/h (3 Bft) 97,24 %
28.01.2017 22:00 -7,6 C 94 % 1025,7 hPa 0,0 l/m 7,4 km/h (2 Bft) O-NO 0,00 h 0,000 mm 0,0 UV-I 0 W/m -8,4 C -9,2 C 11,5 km/h (2 Bft) 98,17 %
28.01.2017 23:00 -7,3 C 94 % 1026,0 hPa 0,0 l/m 6,5 km/h (2 Bft) O-NO 0,00 h 0,000 mm 0,0 UV-I 0 W/m -8,0 C -8,0 C 10,6 km/h (2 Bft) 98,79 %
29.01.2017 00:00 -7,0 C 94 % 1026,0 hPa 0,0 l/m 7,9 km/h (2 Bft) O-NO 0,00 h 0,000 mm 0,0 UV-I 0 W/m -7,8 C -9,0 C 12,6 km/h (3 Bft) 98,69 %
29.01.2017 01:00 -7,0 C 94 % 1026,0 hPa 0,0 l/m 6,7 km/h (2 Bft) O-NO 0,00 h 0,000 mm 0,0 UV-I 0 W/m -7,8 C -7,8 C 9,9 km/h (2 Bft) 98,59 %
29.01.2017 02:00 -7,0 C 94 % 1026,1 hPa 0,0 l/m 6,3 km/h (2 Bft) O-NO 0,00 h 0,000 mm 0,0 UV-I 0 W/m -7,8 C -7,6 C 9,7 km/h (2 Bft) 98,70 %
29.01.2017 03:00 -7,0 C 94 % 1026,3 hPa 0,0 l/m 4,3 km/h (1 Bft) O-NO 0,00 h 0,000 mm 0,0 UV-I 0 W/m -7,8 C -7,1 C 6,9 km/h (2 Bft) 99,12 %
29.01.2017 04:00 -7,1 C 94 % 1026,4 hPa 0,0 l/m 5,2 km/h (1 Bft) NO 0,00 h 0,000 mm 0,0 UV-I 0 W/m -7,9 C -7,2 C 7,8 km/h (2 Bft) 98,57 %
29.01.2017 05:00 -7,3 C 94 % 1026,7 hPa 0,0 l/m 5,2 km/h (1 Bft) O-NO 0,00 h 0,000 mm 0,0 UV-I 0 W/m -8,1 C -7,3 C 7,6 km/h (2 Bft) 99,46 %
29.01.2017 06:00 -7,4 C 94 % 1027,0 hPa 0,0 l/m 4,3 km/h (1 Bft) O 0,00 h 0,000 mm 0,0 UV-I 0 W/m -8,2 C -7,4 C 6,5 km/h (2 Bft) 98,10 %
29.01.2017 07:00 -7,4 C 94 % 1027,5 hPa 0,0 l/m 3,6 km/h (1 Bft) O-NO 0,00 h 0,000 mm 0,0 UV-I 7 W/m -8,2 C -7,4 C 5,6 km/h (1 Bft) 97,51 %
29.01.2017 08:00 -7,5 C 94 % 1027,9 hPa 0,0 l/m 2,7 km/h (1 Bft) O-SO 0,00 h 0,000 mm 0,0 UV-I 27 W/m -8,3 C -7,5 C 4,5 km/h (1 Bft) 95,41 %
29.01.2017 09:00 -7,2 C 94 % 1028,2 hPa 0,0 l/m 1,3 km/h (1 Bft) O 0,00 h 0,000 mm 0,0 UV-I 63 W/m -8,0 C -7,2 C 2,6 km/h (1 Bft) 96,26 %
29.01.2017 10:00 -7,0 C 94 % 1028,4 hPa 0,0 l/m 1,7 km/h (1 Bft) NO 0,00 h 0,025 mm 0,0 UV-I 106 W/m -7,8 C -7,0 C 3,4 km/h (1 Bft) 94,79 %
29.01.2017 11:00 -6,8 C 94 % 1028,0 hPa 0,0 l/m 2,0 km/h (1 Bft) NO 0,00 h 0,026 mm 0,5 UV-I 144 W/m -7,6 C -6,8 C 3,8 km/h (1 Bft) 96,61 %
29.01.2017 12:00 -6,6 C 94 % 1027,5 hPa 0,0 l/m 2,1 km/h (1 Bft) O-NO 0,00 h 0,025 mm 0,5 UV-I 160 W/m -7,4 C -6,6 C 3,9 km/h (1 Bft) 96,27 %
29.01.2017 13:00 -6,4 C 94 % 1026,9 hPa 0,0 l/m 2,2 km/h (1 Bft) O-NO 0,00 h 0,051 mm 0,5 UV-I 150 W/m -7,2 C -6,4 C 3,8 km/h (1 Bft) 97,78 %
29.01.2017 14:00 -6,4 C 94 % 1026,5 hPa 0,0 l/m 1,7 km/h (1 Bft) O-NO 0,00 h 0,025 mm 0,5 UV-I 127 W/m -7,2 C -6,4 C 3,5 km/h (1 Bft) 95,79 %
29.01.2017 15:00 -6,3 C 95 % 1026,4 hPa 0,0 l/m 2,3 km/h (1 Bft) O-NO 0,00 h 0,026 mm 0,0 UV-I 70 W/m -7,0 C -6,3 C 4,2 km/h (1 Bft) 96,90 %
29.01.2017 16:00 -6,5 C 94 % 1026,5 hPa 0,0 l/m 2,6 km/h (1 Bft) O-NO 0,03 h 0,025 mm 0,0 UV-I 21 W/m -7,3 C -6,5 C 4,5 km/h (1 Bft) 95,77 %
29.01.2017 17:00 -6,7 C 94 % 1026,7 hPa 0,0 l/m 2,6 km/h (1 Bft) O-NO 0,00 h 0,000 mm 0,0 UV-I 4 W/m -7,5 C -6,7 C 4,4 km/h (1 Bft) 96,64 %
29.01.2017 18:00 -6,8 C 95 % 1026,9 hPa 0,0 l/m 2,7 km/h (1 Bft) O-NO 0,00 h 0,000 mm 0,0 UV-I 0 W/m -7,5 C -6,8 C 4,3 km/h (1 Bft) 95,72 %
29.01.2017 19:00 -6,9 C 95 % 1027,1 hPa 0,0 l/m 1,9 km/h (1 Bft) O-NO 0,00 h 0,000 mm 0,0 UV-I 0 W/m -7,6 C -6,9 C 3,5 km/h (1 Bft) 97,88 %
29.01.2017 20:00 -6,9 C 95 % 1027,2 hPa 0,0 l/m 2,4 km/h (1 Bft) NO 0,00 h 0,000 mm 0,0 UV-I 0 W/m -7,7 C -6,9 C 4,1 km/h (1 Bft) 96,77 %
29.01.2017 21:00 -7,0 C 95 % 1027,2 hPa 0,0 l/m 2,0 km/h (1 Bft) O-NO 0,00 h 0,000 mm 0,0 UV-I 0 W/m -7,7 C -7,0 C 3,6 km/h (1 Bft) 97,84 %
29.01.2017 22:00 -7,1 C 94 % 1027,0 hPa 0,0 l/m 2,4 km/h (1 Bft) O-NO 0,00 h 0,000 mm 0,0 UV-I 0 W/m -7,9 C -7,1 C 4,2 km/h (1 Bft) 97,13 %
29.01.2017 23:00 -7,4 C 94 % 1026,8 hPa 0,0 l/m 2,0 km/h (1 Bft) O-NO 0,00 h 0,000 mm 0,0 UV-I 0 W/m -8,2 C -7,4 C 3,3 km/h (1 Bft) 98,08 %
Min-Datum _ 23.01.17 26.01.17 28.01.17 - 23.01.17 - - - - - 23.01.17 28.01.17 23.01.17 23.01.17
_ Min-Zeit 08:08 14:44 00:48 - 04:46 - - - - - 08:04 01:00 06:22 07:38
Minimum _ -13,0 C 67 % 1022,9 hPa - 0,0 km/h (0 Bft) - - - - - -14,2 C -19,0 C 0,0 km/h (0 Bft) 52,38 %
Max-Datum _ 26.01.17 23.01.17 24.01.17 23.01.17 26.01.17 - 26.01.17 26.01.17 26.01.17 27.01.17 25.01.17 25.01.17 26.01.17 23.01.17
_ Max-Zeit 14:50 21:24 23:12 13:04 18:16 - 08:39 13:00 11:36 12:10 21:06 17:50 17:54 00:04
Maximum _ 0,8 C 95 % 1031,3 hPa 0,2 l/m 36,5 km/h
O-NO (5 Bft)
- 0,05 h 0,178 mm 0,9 UV-I 422 W/m -4,2 C -2,9 C 53,1 km/h
O-NO (7 Bft)
100,00 %
Durchschnitt _ -5,9 C 89 % 1026,7 hPa #0,2 l/m 8,7 km/h (2 Bft) O-NO #28:28 h #3,886 mm 0,6 UV-I 132 W/m -7,5 C -9,3 C 12,6 km/h (3 Bft) 97,83 %